Time;durP1;ratioP1;P1;durP2;ratioP2;P2;SDS_P1;SDS_P2;PMS_P1;PMS_P2;Temp;Humidity;BMP_temperature;BMP_pressure;BME280_temperature;BME280_humidity;BME280_pressure;Samples;Min_cycle;Max_cycle;Signal;HPM_P1;HPM_P2
2023/10/09 00:03:54;;;;;;;7.20;1.80;;;;;;;3.47;83.50;100426.67;109727;1250;56991;-60
2023/10/09 00:06:41;;;;;;;6.60;1.80;;;;;;;3.52;83.45;100417.89;109687;1251;57882;-62
2023/10/09 00:09:31;;;;;;;7.20;2.00;;;;;;;3.56;83.11;100408.56;108977;1251;1002468;-63
2023/10/09 00:12:22;;;;;;;5.80;1.70;;;;;;;3.60;82.91;100401.91;109767;1251;68129;-63
2023/10/09 00:15:12;;;;;;;7.20;1.90;;;;;;;3.63;83.03;100395.47;109596;1251;72633;-62
2023/10/09 00:17:58;;;;;;;7.40;1.90;;;;;;;3.66;83.00;100395.32;109751;1251;56946;-63
2023/10/09 00:20:53;;;;;;;6.80;2.20;;;;;;;3.69;82.68;100390.81;109658;1251;60073;-62
2023/10/09 00:23:41;;;;;;;7.50;2.00;;;;;;;3.74;82.82;100391.49;109735;1251;73353;-63
2023/10/09 00:26:43;;;;;;;8.40;2.20;;;;;;;3.74;82.60;100382.52;109663;1251;65636;-63
2023/10/09 00:29:34;;;;;;;7.80;2.10;;;;;;;3.83;82.30;100383.70;109598;1251;71058;-61
2023/10/09 00:32:26;;;;;;;7.10;2.00;;;;;;;3.88;81.82;100381.74;109630;1251;57140;-63
2023/10/09 00:43:53;;;;;;;7.70;2.10;;;;;;;4.02;81.55;100384.96;109673;1251;72452;-62
2023/10/09 00:46:43;;;;;;;6.50;1.80;;;;;;;4.04;81.16;100390.34;108878;1250;1002159;-61
2023/10/09 00:49:31;;;;;;;6.40;2.10;;;;;;;4.05;80.95;100386.39;109681;1251;58687;-62
2023/10/09 00:52:24;;;;;;;7.40;2.10;;;;;;;4.06;80.86;100375.48;109697;1251;72164;-61
2023/10/09 00:55:20;;;;;;;8.00;2.00;;;;;;;4.06;80.78;100368.96;109817;1251;68076;-65
2023/10/09 00:58:14;;;;;;;7.10;1.90;;;;;;;4.09;80.68;100374.65;109622;1254;73594;-61
2023/10/09 01:01:04;;;;;;;7.20;1.90;;;;;;;4.12;80.34;100386.80;109644;1254;57615;-61
2023/10/09 01:03:51;;;;;;;6.90;2.10;;;;;;;4.15;80.20;100385.61;109796;1251;58889;-63
2023/10/09 01:06:44;;;;;;;6.80;1.80;;;;;;;4.19;79.65;100380.00;109530;1253;72085;-62
2023/10/09 01:09:38;;;;;;;7.20;1.80;;;;;;;4.22;79.56;100372.98;108882;1251;1002321;-61
2023/10/09 01:12:28;;;;;;;5.80;1.80;;;;;;;4.25;79.31;100376.00;109599;1251;72493;-61
2023/10/09 01:15:35;;;;;;;6.20;1.70;;;;;;;4.28;79.05;100377.28;109767;1251;56903;-61
2023/10/09 01:18:29;;;;;;;6.10;1.80;;;;;;;4.30;78.93;100370.86;109563;1251;59487;-62
2023/10/09 01:21:26;;;;;;;7.10;1.90;;;;;;;4.33;78.60;100360.73;109629;1255;70603;-62
2023/10/09 01:24:16;;;;;;;6.10;1.60;;;;;;;4.34;78.54;100362.08;109661;1251;68999;-63
2023/10/09 01:27:05;;;;;;;7.30;1.70;;;;;;;4.34;78.40;100365.77;109747;1251;72656;-62
2023/10/09 01:29:51;;;;;;;6.50;1.70;;;;;;;4.33;77.90;100375.27;109747;1251;58143;-61
2023/10/09 01:32:38;;;;;;;7.10;1.70;;;;;;;4.33;78.24;100385.65;109628;1251;59024;-64
2023/10/09 01:35:26;;;;;;;6.50;1.50;;;;;;;4.32;77.94;100382.19;109743;1250;70855;-62
2023/10/09 01:38:15;;;;;;;6.30;1.70;;;;;;;4.31;78.07;100380.68;108993;1250;1002147;-62
2023/10/09 01:41:07;;;;;;;7.00;1.50;;;;;;;4.29;77.98;100369.86;109555;1251;73759;-62
2023/10/09 01:44:00;;;;;;;7.20;1.50;;;;;;;4.29;77.97;100362.83;109634;1251;59788;-60
2023/10/09 01:46:47;;;;;;;5.70;1.60;;;;;;;4.30;78.06;100359.47;109548;1251;60359;-63
2023/10/09 01:49:37;;;;;;;5.80;1.70;;;;;;;4.31;77.53;100349.92;109753;1251;73160;-61
2023/10/09 01:52:23;;;;;;;7.10;1.70;;;;;;;4.33;77.42;100345.95;109672;1251;65881;-63
2023/10/09 01:55:13;;;;;;;5.50;1.60;;;;;;;4.35;77.24;100344.29;109751;1251;73434;-62
2023/10/09 02:01:09;;;;;;;5.20;1.50;;;;;;;4.36;77.19;100348.45;109754;1250;60154;-61
2023/10/09 02:04:03;;;;;;;6.70;1.90;;;;;;;4.35;76.84;100342.72;109748;1251;72849;-62
2023/10/09 02:06:52;;;;;;;6.90;1.50;;;;;;;4.33;77.11;100343.66;109756;1251;65795;-62
2023/10/09 02:09:46;;;;;;;7.20;1.70;;;;;;;4.33;77.02;100341.07;109739;1251;72582;-62
2023/10/09 02:12:33;;;;;;;7.30;1.60;;;;;;;4.31;76.85;100333.96;109731;1250;57045;-62
2023/10/09 02:15:40;;;;;;;5.40;1.50;;;;;;;4.31;76.72;100324.13;109544;1251;60278;-61
2023/10/09 02:19:29;;;;;;;6.10;2.00;;;;;;;4.32;76.44;100315.11;109780;1251;72076;-62
2023/10/09 02:21:41;;;;;;;5.90;1.40;;;;;;;4.33;76.43;100312.39;109754;1251;66766;-62
2023/10/09 02:27:47;;;;;;;6.20;1.80;;;;;;;4.33;76.29;100307.49;109529;1251;57161;-61
2023/10/09 02:30:34;;;;;;;6.00;1.60;;;;;;;4.31;76.42;100309.52;109761;1251;60300;-62
2023/10/09 02:33:27;;;;;;;5.90;1.80;;;;;;;4.28;76.24;100308.95;109767;1250;72375;-62
2023/10/09 02:36:14;;;;;;;5.90;1.50;;;;;;;4.24;76.44;100310.00;108880;1250;1002434;-62
2023/10/09 02:39:00;;;;;;;7.20;1.50;;;;;;;4.21;76.41;100309.82;109741;1251;72491;-62
2023/10/09 02:41:49;;;;;;;7.10;1.80;;;;;;;4.18;76.85;100302.23;109605;1251;56941;-61
2023/10/09 02:44:40;;;;;;;6.40;1.60;;;;;;;4.15;76.54;100299.38;108936;1251;1002747;-61
2023/10/09 02:47:31;;;;;;;6.10;1.80;;;;;;;4.13;76.63;100300.54;109751;1251;72011;-62
2023/10/09 02:50:21;;;;;;;5.30;1.60;;;;;;;4.09;76.87;100293.70;109775;1251;67896;-63
2023/10/09 02:53:09;;;;;;;5.80;1.70;;;;;;;4.06;77.08;100290.30;109753;1250;70156;-61
2023/10/09 02:56:12;;;;;;;7.10;1.80;;;;;;;4.05;77.20;100287.89;109715;1250;57823;-60
2023/10/09 02:59:05;;;;;;;6.90;1.70;;;;;;;4.05;77.20;100283.66;109657;1251;60026;-62
2023/10/09 03:01:55;;;;;;;5.40;1.60;;;;;;;4.03;77.23;100278.35;109778;1250;70948;-62
2023/10/09 03:04:42;;;;;;;6.50;1.80;;;;;;;4.07;77.05;100276.40;109803;1251;68598;-61
2023/10/09 03:07:29;;;;;;;5.60;1.60;;;;;;;4.06;76.96;100275.71;109678;1251;71427;-61
2023/10/09 03:10:15;;;;;;;5.60;1.70;;;;;;;4.06;76.92;100269.79;109781;1251;57976;-61
2023/10/09 03:13:03;;;;;;;7.70;1.70;;;;;;;4.03;76.82;100253.92;109657;1251;60051;-61
2023/10/09 03:15:51;;;;;;;5.90;1.70;;;;;;;4.00;76.82;100252.71;109644;1250;71994;-63
2023/10/09 03:18:37;;;;;;;5.80;1.60;;;;;;;3.96;76.73;100251.44;109714;1250;68987;-62
2023/10/09 03:21:23;;;;;;;5.30;1.60;;;;;;;3.93;76.64;100250.20;109605;1251;71232;-61
2023/10/09 03:24:11;;;;;;;4.80;1.30;;;;;;;3.89;76.71;100239.68;109580;1251;57066;-61
2023/10/09 03:26:57;;;;;;;6.90;1.80;;;;;;;3.86;77.26;100235.77;109609;1250;60186;-61
2023/10/09 03:29:49;;;;;;;6.10;1.60;;;;;;;3.84;77.07;100231.11;109682;1250;71739;-60
2023/10/09 03:32:36;;;;;;;6.30;1.60;;;;;;;3.85;76.86;100229.84;109739;1250;68989;-61
2023/10/09 03:35:26;;;;;;;6.30;1.70;;;;;;;3.88;76.71;100229.89;109685;1250;73681;-61
2023/10/09 03:38:16;;;;;;;6.60;1.70;;;;;;;3.92;76.91;100232.84;109687;1250;57803;-61
2023/10/09 03:41:06;;;;;;;5.90;1.90;;;;;;;3.96;76.81;100235.48;109752;1250;59081;-61
2023/10/09 03:43:54;;;;;;;5.80;1.60;;;;;;;3.98;76.75;100241.00;109554;1250;71932;-61
2023/10/09 03:46:44;;;;;;;6.90;1.80;;;;;;;3.98;76.94;100247.48;109750;1250;65614;-61
2023/10/09 03:49:31;;;;;;;5.90;1.40;;;;;;;3.98;76.70;100247.36;109629;1250;72436;-63
2023/10/09 03:52:19;;;;;;;6.70;1.80;;;;;;;3.97;77.11;100251.79;109699;1251;57052;-61
2023/10/09 03:55:10;;;;;;;5.30;1.50;;;;;;;3.96;77.06;100254.46;109707;1250;58023;-61
2023/10/09 03:57:59;;;;;;;6.70;1.50;;;;;;;3.94;77.34;100246.30;109688;1250;73037;-62
2023/10/09 04:00:45;;;;;;;6.70;1.80;;;;;;;3.91;77.00;100230.94;109620;1251;67770;-61
2023/10/09 04:03:32;;;;;;;6.20;1.70;;;;;;;3.91;77.04;100239.56;109546;1251;71686;-61
2023/10/09 04:06:18;;;;;;;6.20;1.40;;;;;;;3.90;77.22;100241.02;109555;1251;57107;-62
2023/10/09 04:12:19;;;;;;;7.60;2.50;;;;;;;3.89;77.39;100238.79;108919;1250;1002203;-63
2023/10/09 04:15:14;;;;;;;6.90;2.20;;;;;;;3.91;77.61;100237.82;109587;1251;66729;-61
2023/10/09 04:18:03;;;;;;;8.80;1.80;;;;;;;3.95;77.48;100230.27;109473;1253;72720;-62
2023/10/09 04:27:02;;;;;;;6.60;1.80;;;;;;;4.08;77.46;100218.58;108752;1253;1003034;-62
2023/10/09 04:29:49;;;;;;;6.60;1.80;;;;;;;4.12;77.13;100218.04;109554;1251;66563;-62
2023/10/09 04:32:35;;;;;;;7.50;1.80;;;;;;;4.14;76.86;100213.05;108780;1251;1002347;-62
2023/10/09 04:35:24;;;;;;;8.80;1.80;;;;;;;4.14;76.58;100206.34;109544;1251;57014;-61
2023/10/09 04:38:10;;;;;;;5.70;1.80;;;;;;;4.16;76.63;100202.20;109549;1251;60047;-61
2023/10/09 04:40:59;;;;;;;6.60;1.90;;;;;;;4.17;76.39;100208.49;109617;1251;72362;-62
2023/10/09 04:43:45;;;;;;;5.90;1.20;;;;;;;4.17;75.95;100203.74;109493;1251;68772;-63
2023/10/09 04:46:43;;;;;;;6.60;1.70;;;;;;;4.17;76.03;100210.81;109506;1251;71428;-62
2023/10/09 04:49:29;;;;;;;5.30;1.40;;;;;;;4.16;75.99;100209.73;109365;1251;57290;-61
2023/10/09 04:55:19;;;;;;;6.20;1.80;;;;;;;4.17;75.41;100201.45;109542;1251;71144;-64
2023/10/09 04:58:23;;;;;;;9.10;2.00;;;;;;;4.19;75.40;100201.52;109543;1251;67728;-65
2023/10/09 05:01:14;;;;;;;7.20;2.10;;;;;;;4.22;75.78;100200.31;109585;1251;73754;-62
2023/10/09 05:04:04;;;;;;;8.10;2.10;;;;;;;4.29;75.66;100206.16;109530;1251;58127;-63
2023/10/09 05:06:56;;;;;;;7.00;2.30;;;;;;;4.32;75.38;100204.79;109586;1251;58426;-63
2023/10/09 05:09:55;;;;;;;6.60;2.50;;;;;;;4.34;75.50;100202.77;109576;1251;70974;-62
2023/10/09 05:12:46;;;;;;;7.80;2.20;;;;;;;4.35;75.40;100195.85;109536;1251;68806;-61
2023/10/09 05:15:34;;;;;;;7.80;2.00;;;;;;;4.35;75.20;100187.22;109448;1251;72611;-62
2023/10/09 05:18:27;;;;;;;6.60;1.80;;;;;;;4.36;75.24;100179.45;109559;1251;57941;-62
2023/10/09 05:27:17;;;;;;;5.80;1.60;;;;;;;4.42;74.30;100173.15;109601;1251;66206;-61
2023/10/09 05:33:28;;;;;;;6.80;2.00;;;;;;;4.47;74.00;100171.19;109642;1251;57187;-63
2023/10/09 05:47:04;;;;;;;7.00;1.70;;;;;;;4.60;73.91;100174.03;109642;1251;73633;-61
2023/10/09 05:51:41;;;;;;;6.90;1.90;;;;;;;4.68;73.59;100169.41;109654;1251;58841;-62
2023/10/09 06:03:48;;;;;;;7.20;1.80;;;;;;;4.83;73.52;100161.27;108741;1251;1002344;-61
2023/10/09 06:06:56;;;;;;;8.20;2.10;;;;;;;4.86;73.65;100162.31;109573;1251;58950;-63
2023/10/09 06:09:52;;;;;;;6.90;2.30;;;;;;;4.92;73.33;100167.27;108801;1252;1002199;-61
2023/10/09 06:18:41;;;;;;;9.40;2.90;;;;;;;5.24;72.97;100160.13;109561;1251;57068;-62
2023/10/09 06:22:01;;;;;;;7.10;2.50;;;;;;;5.38;72.72;100162.40;109588;1251;61125;-62
2023/10/09 06:24:54;;;;;;;7.70;2.50;;;;;;;5.54;71.93;100161.69;109615;1251;73118;-63
2023/10/09 06:30:44;;;;;;;7.70;2.60;;;;;;;5.89;71.03;100185.98;109577;1251;71176;-61
2023/10/09 06:33:36;;;;;;;8.50;2.70;;;;;;;6.17;70.73;100189.33;109601;1251;57548;-62
2023/10/09 06:36:31;;;;;;;8.50;2.90;;;;;;;6.45;70.07;100181.58;109532;1253;60624;-64
2023/10/09 06:42:33;;;;;;;7.90;2.30;;;;;;;6.89;68.15;100176.14;109533;1251;67983;-61
2023/10/09 06:45:21;;;;;;;6.60;2.10;;;;;;;7.11;66.82;100178.87;109626;1251;73451;-62
2023/10/09 06:48:09;;;;;;;8.30;2.40;;;;;;;7.25;66.47;100176.41;109544;1252;57073;-62
2023/10/09 06:51:03;;;;;;;7.10;2.30;;;;;;;7.37;66.24;100174.48;109528;1251;60187;-61
2023/10/09 06:54:05;;;;;;;7.50;2.60;;;;;;;7.43;66.05;100177.05;109625;1251;73207;-61
2023/10/09 07:00:51;;;;;;;8.80;2.90;;;;;;;7.59;65.22;100168.48;109550;1251;71464;-62
2023/10/09 07:02:50;;;;;;;9.30;2.70;;;;;;;7.64;64.84;100173.31;109587;1251;56892;-61
2023/10/09 07:08:57;;;;;;;9.30;2.60;;;;;;;7.80;64.34;100174.19;109601;1252;72326;-62
2023/10/09 07:20:36;;;;;;;7.60;2.10;;;;;;;8.37;62.49;100170.30;109427;1251;60402;-62
2023/10/09 07:23:32;;;;;;;7.80;2.30;;;;;;;8.61;61.84;100172.27;109498;1251;71480;-62
2023/10/09 07:26:18;;;;;;;7.30;2.40;;;;;;;8.85;61.62;100175.41;109509;1252;68249;-63
2023/10/09 07:29:21;;;;;;;9.30;4.10;;;;;;;9.02;60.76;100175.13;109652;1252;72053;-62
2023/10/09 07:32:12;;;;;;;10.10;4.00;;;;;;;9.08;59.90;100168.38;109561;1251;57676;-63
2023/10/09 07:34:59;;;;;;;7.80;2.70;;;;;;;9.15;59.65;100174.59;109577;1251;60532;-61
2023/10/09 07:37:50;;;;;;;7.30;2.30;;;;;;;9.23;59.31;100179.22;109588;1251;73734;-62
2023/10/09 07:46:32;;;;;;;6.60;1.90;;;;;;;9.31;57.98;100170.50;109615;1251;57299;-64
2023/10/09 07:49:26;;;;;;;6.70;2.00;;;;;;;9.29;58.04;100169.75;109451;1251;60344;-62
2023/10/09 07:52:12;;;;;;;6.60;2.20;;;;;;;9.33;58.00;100178.30;109587;1251;71060;-64
2023/10/09 07:55:03;;;;;;;6.70;2.00;;;;;;;9.44;57.68;100177.02;109682;1251;67909;-62
2023/10/09 07:57:52;;;;;;;6.70;1.80;;;;;;;9.60;57.29;100174.65;109510;1251;71413;-62
2023/10/09 08:03:46;;;;;;;7.40;2.40;;;;;;;9.96;56.74;100164.61;109657;1251;59993;-64
2023/10/09 08:06:38;;;;;;;7.20;2.20;;;;;;;10.16;55.82;100163.96;109573;1251;70831;-62
2023/10/09 08:09:46;;;;;;;7.80;2.20;;;;;;;10.39;55.72;100157.86;109577;1251;68802;-61
2023/10/09 08:18:44;;;;;;;6.50;1.90;;;;;;;11.03;53.31;100135.27;109541;1251;61100;-61
2023/10/09 08:21:43;;;;;;;6.80;1.70;;;;;;;11.37;52.31;100129.91;109642;1251;72308;-61
2023/10/09 08:25:04;;;;;;;7.30;1.70;;;;;;;11.91;51.09;100124.13;108856;1251;1002507;-60
2023/10/09 08:27:54;;;;;;;7.20;1.90;;;;;;;12.66;49.65;100121.46;109585;1251;71457;-61
2023/10/09 08:30:49;;;;;;;7.90;2.00;;;;;;;13.66;46.82;100111.89;109629;1251;58181;-61
2023/10/09 08:36:51;;;;;;;7.40;1.90;;;;;;;16.00;42.87;100097.45;109601;1251;71304;-62
2023/10/09 08:39:37;;;;;;;6.70;1.90;;;;;;;17.90;39.62;100086.67;109380;1251;67988;-61
2023/10/09 08:42:26;;;;;;;6.10;1.60;;;;;;;19.30;36.88;100089.94;109608;1251;73562;-62
2023/10/09 08:45:14;;;;;;;6.00;1.70;;;;;;;20.56;33.86;100085.88;109559;1251;57885;-62
2023/10/09 08:48:04;;;;;;;6.70;1.80;;;;;;;21.17;32.03;100087.27;109523;1253;60219;-61
2023/10/09 08:50:54;;;;;;;5.70;1.50;;;;;;;21.37;31.12;100084.23;109620;1251;72337;-62
2023/10/09 08:53:42;;;;;;;5.50;1.40;;;;;;;22.18;30.55;100083.09;109572;1251;67731;-62
2023/10/09 08:56:29;;;;;;;5.80;1.80;;;;;;;23.06;29.16;100081.25;109506;1251;73584;-62
2023/10/09 08:59:20;;;;;;;5.90;1.80;;;;;;;24.02;27.73;100078.63;109511;1251;57634;-61
2023/10/09 09:02:11;;;;;;;6.30;2.00;;;;;;;24.74;26.40;100083.90;109441;1251;60185;-60
2023/10/09 09:04:57;;;;;;;6.50;1.80;;;;;;;25.65;25.67;100086.45;109497;1251;71893;-62
2023/10/09 09:07:44;;;;;;;6.40;1.50;;;;;;;26.38;24.13;100081.94;109538;1251;67735;-64
2023/10/09 09:10:46;;;;;;;5.80;1.60;;;;;;;26.98;23.22;100084.11;109534;1251;73493;-63
2023/10/09 09:13:34;;;;;;;5.70;1.30;;;;;;;26.79;22.93;100084.67;109477;1253;57575;-62
2023/10/09 09:16:29;;;;;;;5.50;1.20;;;;;;;25.80;23.46;100086.70;109403;1251;60465;-60
2023/10/09 09:19:19;;;;;;;6.10;1.30;;;;;;;24.67;24.09;100086.48;109604;1251;72119;-61
2023/10/09 09:22:12;;;;;;;5.30;1.30;;;;;;;23.62;25.51;100087.34;109591;1253;67594;-61
2023/10/09 09:25:03;;;;;;;5.90;1.50;;;;;;;22.54;26.86;100085.16;109563;1251;73745;-63
2023/10/09 09:27:52;;;;;;;4.90;1.20;;;;;;;21.65;27.56;100086.40;109596;1251;57752;-60
2023/10/09 09:30:40;;;;;;;6.00;1.50;;;;;;;20.80;29.11;100090.61;109637;1251;58855;-61
2023/10/09 09:33:32;;;;;;;5.40;1.50;;;;;;;20.08;30.06;100088.70;109619;1252;72000;-62
2023/10/09 09:36:20;;;;;;;6.00;1.50;;;;;;;19.66;31.12;100090.64;109628;1251;67797;-64
2023/10/09 09:39:19;;;;;;;5.70;1.50;;;;;;;19.22;31.79;100086.72;109472;1252;72528;-61
2023/10/09 09:42:13;;;;;;;7.40;1.70;;;;;;;19.28;31.54;100082.72;109562;1251;56825;-62
2023/10/09 09:45:02;;;;;;;6.50;1.70;;;;;;;19.34;31.92;100086.40;109647;1251;59357;-61
2023/10/09 09:47:54;;;;;;;5.70;1.40;;;;;;;19.08;31.53;100089.38;109581;1251;72132;-62
2023/10/09 09:50:44;;;;;;;5.90;1.60;;;;;;;18.68;32.13;100082.83;109567;1251;66514;-62
2023/10/09 09:53:34;;;;;;;6.30;1.30;;;;;;;18.23;33.00;100079.04;109302;1253;73426;-62
2023/10/09 09:56:29;;;;;;;5.80;1.60;;;;;;;17.89;33.46;100080.89;109575;1252;57845;-63
2023/10/09 09:59:21;;;;;;;6.00;1.50;;;;;;;17.32;33.51;100081.74;109555;1251;59968;-61
2023/10/09 10:02:20;;;;;;;6.60;1.50;;;;;;;16.91;34.06;100079.74;109428;1256;74017;-61
2023/10/09 10:05:11;;;;;;;5.80;1.40;;;;;;;16.68;34.91;100077.77;109633;1251;65809;-62
2023/10/09 10:08:00;;;;;;;5.00;1.20;;;;;;;16.73;35.30;100082.30;109563;1251;72484;-63
2023/10/09 10:10:49;;;;;;;5.30;1.40;;;;;;;17.68;34.11;100070.59;109418;1251;58052;-61
2023/10/09 10:13:42;;;;;;;5.70;1.40;;;;;;;18.82;32.80;100068.20;108791;1251;1002388;-61
2023/10/09 10:16:34;;;;;;;5.40;1.50;;;;;;;19.54;31.86;100061.80;108767;1251;1002065;-63
2023/10/09 10:22:33;;;;;;;5.90;1.50;;;;;;;20.61;29.84;100060.13;109595;1253;72548;-65
2023/10/09 10:25:49;;;;;;;5.30;1.40;;;;;;;21.72;28.46;100057.52;109563;1251;57276;-62
2023/10/09 10:28:38;;;;;;;6.80;1.60;;;;;;;22.27;27.53;100058.25;109589;1251;59236;-62
2023/10/09 10:32:08;;;;;;;5.20;1.30;;;;;;;22.50;27.14;100056.77;109600;1251;72923;-63
2023/10/09 10:34:58;;;;;;;4.90;1.30;;;;;;;22.50;26.81;100055.02;109536;1252;67734;-64
2023/10/09 10:37:50;;;;;;;5.80;1.30;;;;;;;22.44;26.93;100059.45;109558;1252;72270;-62
2023/10/09 10:40:46;;;;;;;5.80;1.40;;;;;;;22.23;26.74;100060.97;109567;1251;57987;-61
2023/10/09 10:43:34;;;;;;;5.30;1.30;;;;;;;21.80;27.50;100062.74;109428;1252;190525;-62
2023/10/09 10:49:16;;;;;;;8.70;2.00;;;;;;;23.12;26.06;100050.97;109554;1252;67728;-62
2023/10/09 10:52:17;;;;;;;5.20;1.50;;;;;;;23.77;25.20;100053.13;109488;1253;74015;-62
2023/10/09 10:55:48;;;;;;;5.00;1.20;;;;;;;24.67;23.76;100043.10;109585;1251;57379;-62
2023/10/09 10:58:24;;;;;;;5.60;1.40;;;;;;;25.29;23.41;100042.41;109623;1252;60909;-60
2023/10/09 11:01:13;;;;;;;5.00;1.20;;;;;;;25.50;23.00;100036.29;109583;1252;73039;-62
2023/10/09 11:04:12;;;;;;;5.40;1.40;;;;;;;25.70;22.74;100035.16;109571;1254;67615;-64
2023/10/09 11:07:09;;;;;;;4.60;1.10;;;;;;;25.71;22.18;100031.34;109317;1253;71271;-61
2023/10/09 11:15:46;;;;;;;5.80;1.40;;;;;;;24.74;22.60;100014.70;109537;1254;73091;-61
2023/10/09 11:18:42;;;;;;;5.50;1.50;;;;;;;24.50;23.41;100017.30;109568;1253;68957;-62
2023/10/09 11:21:32;;;;;;;5.30;1.20;;;;;;;24.38;23.77;100019.33;109532;1251;73961;-63
2023/10/09 11:24:24;;;;;;;4.90;1.10;;;;;;;23.92;23.78;100017.27;109617;1251;57618;-60
2023/10/09 11:27:18;;;;;;;5.00;1.00;;;;;;;23.25;24.12;100010.20;109590;1251;60851;-61
2023/10/09 11:30:12;;;;;;;7.20;1.20;;;;;;;23.20;23.91;100006.67;109508;1251;72931;-64
2023/10/09 11:33:07;;;;;;;16.50;2.30;;;;;;;23.11;24.34;99999.11;109643;1251;67222;-63
2023/10/09 11:35:57;;;;;;;13.50;1.40;;;;;;;23.22;24.10;100001.08;109630;1251;73444;-62
2023/10/09 11:38:45;;;;;;;5.20;1.00;;;;;;;22.98;24.45;99996.88;109551;1251;58888;-64
2023/10/09 11:41:34;;;;;;;5.00;1.00;;;;;;;22.28;25.11;99989.63;109615;1251;58845;-63
2023/10/09 11:44:55;;;;;;;6.40;1.10;;;;;;;22.27;25.19;99982.15;109590;1251;73082;-61
2023/10/09 11:47:54;;;;;;;6.90;1.20;;;;;;;22.10;24.58;99983.86;109540;1253;68870;-61
2023/10/09 11:50:51;;;;;;;5.90;1.00;;;;;;;21.67;24.63;99976.02;109608;1251;72760;-61
2023/10/09 11:53:49;;;;;;;4.30;0.90;;;;;;;20.52;26.01;99976.41;109623;1251;57919;-62
2023/10/09 11:56:36;;;;;;;5.80;1.10;;;;;;;19.25;27.65;99971.78;109535;1251;60256;-61
2023/10/09 11:59:23;;;;;;;5.50;1.10;;;;;;;18.88;28.14;99970.60;109602;1252;71861;-61
2023/10/09 12:02:13;;;;;;;6.80;1.30;;;;;;;19.02;28.85;99962.93;109642;1251;67694;-61
2023/10/09 12:04:59;;;;;;;4.90;1.10;;;;;;;19.24;28.61;99956.59;109600;1251;71182;-61
2023/10/09 12:07:53;;;;;;;4.50;1.00;;;;;;;19.34;29.01;99956.55;109435;1251;57375;-60
2023/10/09 12:10:40;;;;;;;4.60;1.20;;;;;;;19.48;29.01;99963.78;109585;1251;60145;-62
2023/10/09 12:13:26;;;;;;;6.00;1.50;;;;;;;19.34;28.54;99959.14;109584;1252;73102;-60
2023/10/09 12:16:15;;;;;;;5.50;1.30;;;;;;;19.03;28.99;99961.92;109590;1251;67584;-62
2023/10/09 12:19:02;;;;;;;5.20;1.30;;;;;;;18.33;29.87;99967.84;109507;1251;72722;-61
2023/10/09 12:21:49;;;;;;;4.60;0.90;;;;;;;17.71;30.75;99969.41;109580;1251;57612;-63
2023/10/09 12:24:37;;;;;;;5.40;1.20;;;;;;;17.39;31.06;99964.61;109579;1251;60375;-63
2023/10/09 12:27:24;;;;;;;5.00;1.20;;;;;;;16.90;31.61;99964.43;109360;1253;72882;-62
2023/10/09 12:30:11;;;;;;;4.90;1.20;;;;;;;16.60;32.22;99965.77;109371;1251;66595;-62
2023/10/09 12:32:58;;;;;;;5.10;1.00;;;;;;;16.32;32.23;99967.45;109571;1253;72688;-61
2023/10/09 12:35:45;;;;;;;5.30;1.20;;;;;;;15.99;32.47;99967.05;109377;1252;57344;-62
2023/10/09 12:38:31;;;;;;;4.60;1.00;;;;;;;15.83;32.99;99971.09;109570;1252;60186;-61
2023/10/09 12:41:26;;;;;;;5.30;1.40;;;;;;;15.72;33.57;99972.91;109570;1253;72003;-61
2023/10/09 12:44:22;;;;;;;5.60;1.10;;;;;;;15.48;34.17;99977.69;108096;1251;1002278;-61
2023/10/09 12:47:11;;;;;;;5.60;1.30;;;;;;;15.33;34.47;99977.85;109539;1253;72509;-65
2023/10/09 12:49:57;;;;;;;5.10;1.30;;;;;;;15.21;35.40;99976.22;109575;1251;57300;-64
2023/10/09 12:52:43;;;;;;;5.50;1.40;;;;;;;15.04;35.63;99966.98;109349;1253;60147;-61
2023/10/09 12:55:34;;;;;;;6.60;1.50;;;;;;;14.81;35.97;99977.08;109379;1253;73191;-61
2023/10/09 12:58:21;;;;;;;5.30;1.50;;;;;;;14.75;36.31;99971.77;109617;1251;66524;-64
2023/10/09 13:01:11;;;;;;;5.50;1.30;;;;;;;14.74;36.85;99966.30;109367;1251;72622;-61
2023/10/09 13:04:11;;;;;;;5.00;1.50;;;;;;;14.72;37.20;99963.86;109527;1253;57604;-62
2023/10/09 13:07:02;;;;;;;5.40;1.30;;;;;;;14.56;37.61;99968.67;109462;1254;60633;-61
2023/10/09 13:12:57;;;;;;;4.90;1.30;;;;;;;14.50;37.90;99966.05;109474;1251;68869;-60
2023/10/09 13:15:44;;;;;;;4.60;1.20;;;;;;;14.47;37.60;99967.61;109612;1255;71465;-61
2023/10/09 13:18:31;;;;;;;5.60;1.40;;;;;;;14.21;37.11;99965.21;109594;1253;57803;-61
2023/10/09 13:21:20;;;;;;;6.90;2.00;;;;;;;13.90;37.35;99966.53;109337;1251;59983;-60
2023/10/09 13:24:13;;;;;;;5.30;1.30;;;;;;;13.75;38.36;99968.11;109377;1251;73066;-62
2023/10/09 13:27:04;;;;;;;6.00;1.20;;;;;;;13.68;39.37;99965.34;109496;1254;66794;-64
2023/10/09 13:29:52;;;;;;;4.50;1.00;;;;;;;13.58;39.42;99962.82;109541;1253;71463;-63
2023/10/09 13:32:38;;;;;;;5.40;1.30;;;;;;;13.50;39.75;99959.89;109315;1251;57329;-60
2023/10/09 13:35:37;;;;;;;5.60;1.30;;;;;;;13.40;40.35;99960.73;109505;1251;61363;-61
2023/10/09 13:38:23;;;;;;;5.40;1.50;;;;;;;13.34;40.98;99952.03;109614;1251;71786;-63
2023/10/09 13:41:14;;;;;;;6.30;1.50;;;;;;;13.32;41.16;99955.06;109633;1251;66322;-65
2023/10/09 13:44:02;;;;;;;7.00;1.50;;;;;;;13.29;41.24;99959.77;109402;1251;72735;-63
2023/10/09 13:46:50;;;;;;;6.00;1.70;;;;;;;13.24;41.02;99962.37;109478;1253;57693;-62
2023/10/09 13:49:40;;;;;;;5.20;1.30;;;;;;;13.22;41.43;99964.31;109464;1251;58908;-65
2023/10/09 13:52:27;;;;;;;5.80;1.50;;;;;;;13.16;41.47;99962.86;109564;1251;72737;-63
2023/10/09 13:55:16;;;;;;;6.00;1.50;;;;;;;13.13;42.09;99962.67;109568;1251;67998;-60
2023/10/09 13:58:10;;;;;;;5.50;1.50;;;;;;;13.03;41.73;99964.79;109552;1253;73687;-65
2023/10/09 14:00:56;;;;;;;5.40;1.40;;;;;;;12.93;42.10;99962.66;109655;1251;57787;-60
2023/10/09 14:03:48;;;;;;;6.10;1.30;;;;;;;12.86;42.08;99966.25;109429;1251;59146;-62
2023/10/09 14:06:37;;;;;;;5.50;1.30;;;;;;;12.76;42.12;99966.23;109561;1254;73577;-62
2023/10/09 14:09:45;;;;;;;5.20;1.40;;;;;;;12.67;42.52;99959.77;109569;1253;66364;-64
2023/10/09 14:12:34;;;;;;;6.10;1.60;;;;;;;12.59;43.46;99957.22;109536;1252;71231;-63
2023/10/09 14:15:20;;;;;;;5.60;1.60;;;;;;;12.53;43.60;99952.45;109521;1251;57781;-62
2023/10/09 14:18:11;;;;;;;5.00;1.50;;;;;;;12.50;43.64;99951.42;109534;1251;60484;-62
2023/10/09 14:21:04;;;;;;;7.00;1.60;;;;;;;12.49;43.57;99951.39;109637;1251;72874;-62
2023/10/09 14:23:51;;;;;;;5.30;1.40;;;;;;;12.47;43.81;99961.16;109692;1250;67760;-62
2023/10/09 14:26:38;;;;;;;6.20;1.90;;;;;;;12.46;44.74;99962.54;109709;1250;72778;-60
2023/10/09 14:29:26;;;;;;;6.10;1.60;;;;;;;12.44;45.03;99959.27;109709;1251;57309;-62
2023/10/09 14:32:15;;;;;;;7.00;1.70;;;;;;;12.41;44.43;99956.16;109665;1251;60032;-62
2023/10/09 14:35:12;;;;;;;6.20;2.10;;;;;;;12.36;44.68;99960.89;109668;1251;73912;-61
2023/10/09 14:38:01;;;;;;;6.00;1.80;;;;;;;12.31;45.47;99956.73;109654;1251;66482;-61
2023/10/09 14:40:47;;;;;;;6.60;1.90;;;;;;;12.30;46.52;99957.66;109658;1250;72747;-62
2023/10/09 14:43:34;;;;;;;6.00;1.80;;;;;;;12.33;47.31;99956.46;109670;1252;57374;-60
2023/10/09 14:46:25;;;;;;;7.80;2.40;;;;;;;12.31;46.15;99948.86;109695;1255;59962;-61
2023/10/09 14:49:14;;;;;;;7.70;2.10;;;;;;;12.27;46.22;99950.42;109549;1251;73790;-62
2023/10/09 14:52:01;;;;;;;7.90;1.90;;;;;;;12.21;46.72;99939.36;109636;1251;67720;-61
2023/10/09 14:54:50;;;;;;;6.90;1.80;;;;;;;12.21;46.95;99941.51;109536;1254;72306;-62
2023/10/09 14:57:36;;;;;;;8.20;2.00;;;;;;;12.16;47.10;99943.71;109620;1251;57939;-62
2023/10/09 15:00:26;;;;;;;7.40;1.90;;;;;;;12.06;47.27;99941.91;109613;1251;58906;-64
2023/10/09 15:03:14;;;;;;;7.30;1.70;;;;;;;11.96;47.29;99956.05;109713;1251;72544;-61
2023/10/09 15:06:00;;;;;;;7.30;1.90;;;;;;;11.82;47.34;99957.75;109684;1251;66271;-63
2023/10/09 15:08:47;;;;;;;8.20;1.90;;;;;;;11.69;48.01;99959.21;109702;1251;72609;-61
2023/10/09 15:11:34;;;;;;;6.90;1.90;;;;;;;11.53;48.12;99960.89;109607;1251;57809;-63
2023/10/09 15:14:21;;;;;;;8.30;2.10;;;;;;;11.35;48.36;99960.63;109641;1251;59109;-61